Time;durP1;ratioP1;P1;durP2;ratioP2;P2;SDS_P1;SDS_P2;PMS_P1;PMS_P2;Temp;Humidity;BMP_temperature;BMP_pressure;BME280_temperature;BME280_humidity;BME280_pressure;Samples;Min_cycle;Max_cycle;Signal;HPM_P1;HPM_P2
2022/11/28 00:00:10;;;;;;;;;;;7.50;99.90;;;;;;5074594;28;19918;-81
2022/11/28 00:02:36;;;;;;;;;;;7.50;99.90;;;;;;5074067;28;19909;-81
2022/11/28 00:05:01;;;;;;;;;;;7.50;99.90;;;;;;5074237;28;20356;-82
2022/11/28 00:07:27;;;;;;;;;;;7.50;99.90;;;;;;5074007;28;19912;-82
2022/11/28 00:09:52;;;;;;;;;;;7.50;99.90;;;;;;5075462;28;19915;-81
2022/11/28 00:12:18;;;;;;;;;;;7.50;99.90;;;;;;5080595;28;19912;-81
2022/11/28 00:14:43;;;;;;;;;;;7.50;99.90;;;;;;5096145;28;20414;-81
2022/11/28 00:17:09;;;;;;;;;;;7.50;99.90;;;;;;5095875;28;20281;-81
2022/11/28 00:19:34;;;;;;;;;;;7.50;99.90;;;;;;5095735;28;19958;-81
2022/11/28 00:22:00;;;;;;;;;;;7.50;99.90;;;;;;5091397;28;20343;-82
2022/11/28 00:24:25;;;;;;;;;;;7.50;99.90;;;;;;5075091;28;19908;-83
2022/11/28 00:26:51;;;;;;;;;;;7.50;99.90;;;;;;5075128;28;19987;-83
2022/11/28 00:29:16;;;;;;;;;;;7.40;99.90;;;;;;5057407;28;19908;-81
2022/11/28 00:31:42;;;;;;;;;;;7.40;99.90;;;;;;5074943;28;20394;-81
2022/11/28 00:34:09;;;;;;;;;;;7.40;99.90;;;;;;5075444;28;20046;-81
2022/11/28 00:36:34;;;;;;;;;;;7.40;99.90;;;;;;5075088;28;20011;-81
2022/11/28 00:39:00;;;;;;;;;;;7.40;99.90;;;;;;5077304;28;19959;-81
2022/11/28 00:41:27;;;;;;;;;;;7.40;99.90;;;;;;5059803;28;19909;-82
2022/11/28 00:43:53;;;;;;;;;;;7.40;99.90;;;;;;5059268;28;19908;-83
2022/11/28 00:46:20;;;;;;;;;;;7.30;99.90;;;;;;5075748;28;20392;-84
2022/11/28 00:48:45;;;;;;;;;;;7.30;99.90;;;;;;5074879;28;20393;-82
2022/11/28 00:51:12;;;;;;;;;;;7.40;99.90;;;;;;5057374;28;19909;-84
2022/11/28 00:53:40;;;;;;;;;;;7.40;99.90;;;;;;5076067;28;20285;-83
2022/11/28 00:56:06;;;;;;;;;;;7.40;99.90;;;;;;5075979;28;19909;-84
2022/11/28 00:58:32;;;;;;;;;;;7.40;99.90;;;;;;5057273;28;19961;-84
2022/11/28 01:00:58;;;;;;;;;;;7.40;99.90;;;;;;5057295;28;20070;-82
2022/11/28 01:03:23;;;;;;;;;;;7.40;99.90;;;;;;5075582;28;19950;-83
2022/11/28 01:05:49;;;;;;;;;;;7.40;99.90;;;;;;5075327;28;19946;-82
2022/11/28 01:08:14;;;;;;;;;;;7.40;99.90;;;;;;5056926;28;20021;-84
2022/11/28 01:10:41;;;;;;;;;;;7.40;99.90;;;;;;5075474;28;20445;-83
2022/11/28 01:13:07;;;;;;;;;;;7.40;99.90;;;;;;5075687;28;19995;-82
2022/11/28 01:15:32;;;;;;;;;;;7.40;99.90;;;;;;5057597;28;20008;-83
2022/11/28 01:17:58;;;;;;;;;;;7.40;99.90;;;;;;5075049;28;20001;-84
2022/11/28 01:20:24;;;;;;;;;;;7.40;99.90;;;;;;5057185;28;19923;-82
2022/11/28 01:22:49;;;;;;;;;;;7.30;99.90;;;;;;5075300;28;19909;-81
2022/11/28 01:25:14;;;;;;;;;;;7.30;99.90;;;;;;5075071;28;19948;-81
2022/11/28 01:27:40;;;;;;;;;;;7.30;99.90;;;;;;5073923;28;20290;-81
2022/11/28 01:30:06;;;;;;;;;;;7.30;99.90;;;;;;5074094;28;19934;-83
2022/11/28 01:32:31;;;;;;;;;;;7.30;99.90;;;;;;5073803;28;19908;-82
2022/11/28 01:34:57;;;;;;;;;;;7.30;99.90;;;;;;5055879;28;19946;-81
2022/11/28 01:37:22;;;;;;;;;;;7.30;99.90;;;;;;5073982;28;19942;-81
2022/11/28 01:39:48;;;;;;;;;;;7.30;99.90;;;;;;5074038;28;20267;-81
2022/11/28 01:42:17;;;;;;;;;;;7.30;99.90;;;;;;5074031;28;19908;-81
2022/11/28 01:44:48;;;;;;;;;;;7.20;99.90;;;;;;5056364;28;20568;-84
2022/11/28 01:47:16;;;;;;;;;;;7.20;99.90;;;;;;5073369;28;19916;-83
2022/11/28 01:49:43;;;;;;;;;;;7.30;99.90;;;;;;5055935;28;19908;-83
2022/11/28 01:52:11;;;;;;;;;;;7.30;99.90;;;;;;5072240;28;19908;-83
2022/11/28 01:54:38;;;;;;;;;;;7.30;99.90;;;;;;5073552;28;19909;-83
2022/11/28 01:57:06;;;;;;;;;;;7.30;99.90;;;;;;5073469;28;20293;-82
2022/11/28 01:59:34;;;;;;;;;;;7.30;99.90;;;;;;5073225;28;19909;-82
2022/11/28 02:02:00;;;;;;;;;;;7.30;99.90;;;;;;5055110;28;19919;-81
2022/11/28 02:04:26;;;;;;;;;;;7.30;99.90;;;;;;5073096;28;20313;-82
2022/11/28 02:06:52;;;;;;;;;;;7.40;99.90;;;;;;5073741;28;19970;-82
2022/11/28 02:09:17;;;;;;;;;;;7.40;99.90;;;;;;5072182;28;19974;-82
2022/11/28 02:11:55;;;;;;;;;;;7.40;99.90;;;;;;5072798;28;19912;-82
2022/11/28 02:14:39;;;;;;;;;;;7.40;99.90;;;;;;5055160;28;20012;-81
2022/11/28 02:17:05;;;;;;;;;;;7.40;99.90;;;;;;5073566;28;19908;-81
2022/11/28 02:19:30;;;;;;;;;;;7.40;99.90;;;;;;5073015;28;19923;-82
2022/11/28 02:22:04;;;;;;;;;;;7.50;99.90;;;;;;5072876;28;19916;-82
2022/11/28 02:24:35;;;;;;;;;;;7.50;99.90;;;;;;5073632;28;20381;-83
2022/11/28 02:27:06;;;;;;;;;;;7.40;99.90;;;;;;5055201;28;19916;-83
2022/11/28 02:29:50;;;;;;;;;;;7.50;99.90;;;;;;5072797;28;20399;-82
2022/11/28 02:32:25;;;;;;;;;;;7.50;99.90;;;;;;5054763;28;19908;-81
2022/11/28 02:35:14;;;;;;;;;;;7.50;99.90;;;;;;5072891;28;19913;-81
2022/11/28 02:38:01;;;;;;;;;;;7.50;99.90;;;;;;5074484;28;19912;-82
2022/11/28 02:40:30;;;;;;;;;;;7.50;99.90;;;;;;5074733;28;19916;-82
2022/11/28 02:42:56;;;;;;;;;;;7.50;99.90;;;;;;5073750;28;19974;-81
2022/11/28 02:45:30;;;;;;;;;;;7.40;99.90;;;;;;5074767;28;20624;-81
2022/11/28 02:48:16;;;;;;;;;;;7.50;99.90;;;;;;5073777;28;19923;-84
2022/11/28 02:50:46;;;;;;;;;;;7.50;99.90;;;;;;5071766;28;19915;-84
2022/11/28 02:53:13;;;;;;;;;;;7.40;99.90;;;;;;5073917;28;20288;-82
2022/11/28 02:55:39;;;;;;;;;;;7.40;99.90;;;;;;5074142;28;19908;-82
2022/11/28 02:58:05;;;;;;;;;;;7.40;99.90;;;;;;5073555;28;20399;-82
2022/11/28 03:00:32;;;;;;;;;;;7.40;99.90;;;;;;5073530;28;19917;-84
2022/11/28 03:03:21;;;;;;;;;;;7.40;99.90;;;;;;5073581;28;19908;-82
2022/11/28 03:05:52;;;;;;;;;;;7.40;99.90;;;;;;5056041;28;20022;-83
2022/11/28 03:08:30;;;;;;;;;;;7.40;99.90;;;;;;5073628;28;19920;-83
2022/11/28 03:11:07;;;;;;;;;;;7.50;99.90;;;;;;5056170;28;20369;-82
2022/11/28 03:13:51;;;;;;;;;;;7.40;99.90;;;;;;5073919;28;19931;-83
2022/11/28 03:16:25;;;;;;;;;;;7.40;99.90;;;;;;5077195;28;19913;-82
2022/11/28 03:19:22;;;;;;;;;;;7.40;99.90;;;;;;5079417;28;19913;-82
2022/11/28 03:21:55;;;;;;;;;;;7.50;99.90;;;;;;5044565;28;20330;-83
2022/11/28 03:24:34;;;;;;;;;;;7.50;99.90;;;;;;5061673;28;19912;-82
2022/11/28 03:26:59;;;;;;;;;;;7.50;99.90;;;;;;5078072;28;19918;-82
2022/11/28 03:29:30;;;;;;;;;;;7.50;99.90;;;;;;5078673;28;19912;-85
2022/11/28 03:31:58;;;;;;;;;;;7.50;99.90;;;;;;5077773;28;19909;-82
2022/11/28 03:34:24;;;;;;;;;;;7.50;99.90;;;;;;5059362;28;20323;-83
2022/11/28 03:36:52;;;;;;;;;;;7.50;99.90;;;;;;5058895;28;20021;-82
2022/11/28 03:39:21;;;;;;;;;;;7.50;99.90;;;;;;5058729;28;20308;-82
2022/11/28 03:42:02;;;;;;;;;;;7.60;99.90;;;;;;5058692;28;19908;-83
2022/11/28 03:44:29;;;;;;;;;;;7.60;99.90;;;;;;5076732;28;20007;-83
2022/11/28 03:46:56;;;;;;;;;;;7.60;99.90;;;;;;5075946;28;19912;-82
2022/11/28 03:49:29;;;;;;;;;;;7.70;99.90;;;;;;5058407;28;19919;-81
2022/11/28 03:51:58;;;;;;;;;;;7.60;99.90;;;;;;5058001;28;20273;-82
2022/11/28 03:54:34;;;;;;;;;;;7.60;99.90;;;;;;5076669;28;20433;-82
2022/11/28 03:57:00;;;;;;;;;;;7.70;99.90;;;;;;5076262;28;19912;-82
2022/11/28 03:59:29;;;;;;;;;;;7.70;99.90;;;;;;5077169;28;19974;-82
2022/11/28 04:02:14;;;;;;;;;;;7.60;99.90;;;;;;5075468;28;19995;-82
2022/11/28 04:04:58;;;;;;;;;;;7.50;99.90;;;;;;5075360;28;19908;-82
2022/11/28 04:07:43;;;;;;;;;;;7.50;99.90;;;;;;5057387;28;20007;-82
2022/11/28 04:10:16;;;;;;;;;;;7.40;99.90;;;;;;5075672;28;20289;-83
2022/11/28 04:12:59;;;;;;;;;;;7.40;99.90;;;;;;5057456;28;19989;-82
2022/11/28 04:15:29;;;;;;;;;;;7.40;99.90;;;;;;5057242;28;19915;-83
2022/11/28 04:18:15;;;;;;;;;;;7.40;99.90;;;;;;5075185;28;19909;-84
2022/11/28 04:20:43;;;;;;;;;;;7.30;99.90;;;;;;5026797;28;19912;-83
2022/11/28 04:23:11;;;;;;;;;;;7.30;99.90;;;;;;5056953;28;19909;-83
2022/11/28 04:25:38;;;;;;;;;;;7.30;99.90;;;;;;5075071;28;20286;-83
2022/11/28 04:28:07;;;;;;;;;;;7.30;99.90;;;;;;5073914;28;19912;-83
2022/11/28 04:30:33;;;;;;;;;;;7.30;99.90;;;;;;5057110;28;20354;-83
2022/11/28 04:33:00;;;;;;;;;;;7.40;99.90;;;;;;5056828;28;19909;-83
2022/11/28 04:35:31;;;;;;;;;;;7.40;99.90;;;;;;5075297;28;19908;-82
2022/11/28 04:37:58;;;;;;;;;;;7.40;99.90;;;;;;5075285;28;19912;-82
2022/11/28 04:40:24;;;;;;;;;;;7.40;99.90;;;;;;5057225;28;19916;-82
2022/11/28 04:42:56;;;;;;;;;;;7.50;99.90;;;;;;5074816;28;20334;-83
2022/11/28 04:45:31;;;;;;;;;;;7.60;99.90;;;;;;5075927;28;19908;-83
2022/11/28 04:47:56;;;;;;;;;;;7.60;99.90;;;;;;5075613;28;19917;-82
2022/11/28 04:50:24;;;;;;;;;;;7.60;99.90;;;;;;5058713;28;19909;-82
2022/11/28 04:53:02;;;;;;;;;;;7.60;99.90;;;;;;5057633;28;19908;-83
2022/11/28 04:55:32;;;;;;;;;;;7.60;99.90;;;;;;5076190;28;19909;-84
2022/11/28 04:58:11;;;;;;;;;;;7.60;99.90;;;;;;5058158;28;19908;-85
2022/11/28 05:00:37;;;;;;;;;;;7.70;99.90;;;;;;5058082;28;20456;-83
2022/11/28 05:03:03;;;;;;;;;;;7.70;99.90;;;;;;5056981;28;19909;-82
2022/11/28 05:05:29;;;;;;;;;;;7.70;99.90;;;;;;5057647;28;19909;-82
2022/11/28 05:07:55;;;;;;;;;;;7.70;99.90;;;;;;5058068;28;19958;-83
2022/11/28 05:10:21;;;;;;;;;;;7.70;99.90;;;;;;5057756;28;19999;-82
2022/11/28 05:12:46;;;;;;;;;;;7.70;99.90;;;;;;5075348;28;19966;-82
2022/11/28 05:15:17;;;;;;;;;;;7.60;99.90;;;;;;5057008;28;19954;-82
2022/11/28 05:17:43;;;;;;;;;;;7.60;99.90;;;;;;5056890;28;19913;-83
2022/11/28 05:20:09;;;;;;;;;;;7.60;99.90;;;;;;5075553;28;19908;-83
2022/11/28 05:22:34;;;;;;;;;;;7.60;99.90;;;;;;5074922;28;19962;-84
2022/11/28 05:25:00;;;;;;;;;;;7.60;99.90;;;;;;5057031;28;19912;-82
2022/11/28 05:27:25;;;;;;;;;;;7.70;99.90;;;;;;5056874;28;20384;-82
2022/11/28 05:29:52;;;;;;;;;;;7.70;99.90;;;;;;5056744;28;19916;-83
2022/11/28 05:32:18;;;;;;;;;;;7.70;99.90;;;;;;5056989;28;19920;-82
2022/11/28 05:34:43;;;;;;;;;;;7.70;99.90;;;;;;5075237;28;20358;-83
2022/11/28 05:37:09;;;;;;;;;;;7.70;99.90;;;;;;5075036;28;19917;-82
2022/11/28 05:39:34;;;;;;;;;;;7.60;99.90;;;;;;5074521;28;19915;-82
2022/11/28 05:42:00;;;;;;;;;;;7.60;99.90;;;;;;5057033;28;19917;-83
2022/11/28 05:44:25;;;;;;;;;;;7.60;99.90;;;;;;5056952;28;20369;-82
2022/11/28 05:46:50;;;;;;;;;;;7.60;99.90;;;;;;5056350;28;20535;-83
2022/11/28 05:49:16;;;;;;;;;;;7.50;99.90;;;;;;5075000;28;19912;-85
2022/11/28 05:51:41;;;;;;;;;;;7.50;99.90;;;;;;5056215;28;19908;-83
2022/11/28 05:54:07;;;;;;;;;;;7.50;99.90;;;;;;5073496;28;19959;-83
2022/11/28 05:56:33;;;;;;;;;;;7.50;99.90;;;;;;5055629;28;20342;-82
2022/11/28 05:58:59;;;;;;;;;;;7.50;99.90;;;;;;5074130;28;20408;-84
2022/11/28 06:01:25;;;;;;;;;;;7.50;99.90;;;;;;5055370;28;19909;-82
2022/11/28 06:03:56;;;;;;;;;;;7.50;99.90;;;;;;5073400;28;19908;-83
2022/11/28 06:06:23;;;;;;;;;;;7.50;99.90;;;;;;5073180;28;19908;-82
2022/11/28 06:08:50;;;;;;;;;;;7.50;99.90;;;;;;5056158;28;19912;-84
2022/11/28 06:11:16;;;;;;;;;;;7.50;99.90;;;;;;5073381;28;19915;-82
2022/11/28 06:13:41;;;;;;;;;;;7.50;99.90;;;;;;5055904;28;20445;-82
2022/11/28 06:16:10;;;;;;;;;;;7.50;99.90;;;;;;5073437;28;19912;-82
2022/11/28 06:18:36;;;;;;;;;;;7.40;99.90;;;;;;5073790;28;19958;-83
2022/11/28 06:21:02;;;;;;;;;;;7.50;99.90;;;;;;5054953;28;20393;-82
2022/11/28 06:23:28;;;;;;;;;;;7.40;99.90;;;;;;5073536;28;19908;-83
2022/11/28 06:25:53;;;;;;;;;;;7.50;99.90;;;;;;5073148;28;19959;-82
2022/11/28 06:28:19;;;;;;;;;;;7.50;99.90;;;;;;5055037;28;20319;-82
2022/11/28 06:30:44;;;;;;;;;;;7.40;99.90;;;;;;5073139;28;19946;-84
2022/11/28 06:33:10;;;;;;;;;;;7.40;99.90;;;;;;5072845;28;19913;-82
2022/11/28 06:35:35;;;;;;;;;;;7.50;99.90;;;;;;5073150;28;20362;-83
2022/11/28 06:38:01;;;;;;;;;;;7.50;99.90;;;;;;5055142;28;19908;-83
2022/11/28 06:40:26;;;;;;;;;;;7.50;99.90;;;;;;5055086;28;20358;-83
2022/11/28 06:42:52;;;;;;;;;;;7.50;99.90;;;;;;5054430;28;19909;-83
2022/11/28 06:45:17;;;;;;;;;;;7.50;99.90;;;;;;5054825;28;19919;-83
2022/11/28 06:47:43;;;;;;;;;;;7.40;99.90;;;;;;5054679;28;19924;-83
2022/11/28 06:50:09;;;;;;;;;;;7.40;99.90;;;;;;5054377;28;20346;-83
2022/11/28 06:52:34;;;;;;;;;;;7.50;99.90;;;;;;5072483;28;19915;-83
2022/11/28 06:55:00;;;;;;;;;;;7.40;99.90;;;;;;5072752;28;20378;-83
2022/11/28 06:57:26;;;;;;;;;;;7.40;99.90;;;;;;5058267;28;19916;-83
2022/11/28 06:59:51;;;;;;;;;;;7.50;99.90;;;;;;5072882;28;19934;-82
2022/11/28 07:02:16;;;;;;;;;;;7.50;99.90;;;;;;5054541;28;20003;-84
2022/11/28 07:04:42;;;;;;;;;;;7.50;99.90;;;;;;5054301;28;20393;-83
2022/11/28 07:07:07;;;;;;;;;;;7.50;99.90;;;;;;5072296;28;19920;-83
2022/11/28 07:09:33;;;;;;;;;;;7.60;99.90;;;;;;5072866;28;19908;-84
2022/11/28 07:11:58;;;;;;;;;;;7.50;99.90;;;;;;5071252;28;19908;-81
2022/11/28 07:14:24;;;;;;;;;;;7.50;99.90;;;;;;5072944;28;19951;-82
2022/11/28 07:16:49;;;;;;;;;;;7.60;99.90;;;;;;5071800;28;19935;-82
2022/11/28 07:19:15;;;;;;;;;;;7.60;99.90;;;;;;5072640;28;19909;-82
2022/11/28 07:21:41;;;;;;;;;;;7.60;99.90;;;;;;5071214;28;19963;-84
2022/11/28 07:24:06;;;;;;;;;;;7.60;99.90;;;;;;5072395;28;19909;-83
2022/11/28 07:26:32;;;;;;;;;;;7.60;99.90;;;;;;5071532;28;19962;-83
2022/11/28 07:28:58;;;;;;;;;;;7.60;99.90;;;;;;5072374;28;19909;-83
2022/11/28 07:31:26;;;;;;;;;;;7.60;99.90;;;;;;5070827;28;19948;-82
2022/11/28 07:33:52;;;;;;;;;;;7.60;99.90;;;;;;5070881;28;19916;-83
2022/11/28 07:36:23;;;;;;;;;;;7.60;99.90;;;;;;5070881;28;20293;-83
2022/11/28 07:38:48;;;;;;;;;;;7.60;99.90;;;;;;5071129;28;19916;-82
2022/11/28 07:41:14;;;;;;;;;;;7.60;99.90;;;;;;5072073;28;19908;-82
2022/11/28 07:43:42;;;;;;;;;;;7.60;99.90;;;;;;5072175;28;19920;-84
2022/11/28 07:46:08;;;;;;;;;;;7.60;99.90;;;;;;5070807;28;19915;-82
2022/11/28 07:48:34;;;;;;;;;;;7.60;99.90;;;;;;5071919;28;19998;-82
2022/11/28 07:51:04;;;;;;;;;;;7.60;99.90;;;;;;5071827;28;20386;-82
2022/11/28 07:53:29;;;;;;;;;;;7.70;99.90;;;;;;5070776;28;20325;-84
2022/11/28 07:55:54;;;;;;;;;;;7.70;99.90;;;;;;5070950;28;19913;-82
2022/11/28 07:58:21;;;;;;;;;;;7.70;99.90;;;;;;5070831;28;20301;-83
2022/11/28 08:00:46;;;;;;;;;;;7.70;99.90;;;;;;5070558;28;19908;-82
2022/11/28 08:03:12;;;;;;;;;;;7.70;99.90;;;;;;5073848;28;19916;-82
2022/11/28 08:05:37;;;;;;;;;;;7.60;99.90;;;;;;5075672;28;19916;-82
2022/11/28 08:08:03;;;;;;;;;;;7.60;99.90;;;;;;5075456;28;19912;-81
2022/11/28 08:10:28;;;;;;;;;;;7.60;99.90;;;;;;5075843;28;19970;-81
2022/11/28 08:12:54;;;;;;;;;;;7.60;99.90;;;;;;5074235;28;19916;-82
2022/11/28 08:15:19;;;;;;;;;;;7.60;99.90;;;;;;5075728;28;20390;-82
2022/11/28 08:17:45;;;;;;;;;;;7.60;99.90;;;;;;5075336;28;20320;-83
2022/11/28 08:20:10;;;;;;;;;;;7.60;99.90;;;;;;5075363;28;19908;-82
2022/11/28 08:22:36;;;;;;;;;;;7.70;99.90;;;;;;5074089;28;19995;-81
2022/11/28 08:25:01;;;;;;;;;;;7.70;99.90;;;;;;5075484;28;20007;-83
2022/11/28 08:27:27;;;;;;;;;;;7.70;99.90;;;;;;5075383;28;20394;-82
2022/11/28 08:29:52;;;;;;;;;;;7.70;99.90;;;;;;5075416;28;20388;-82
2022/11/28 08:32:19;;;;;;;;;;;7.70;99.90;;;;;;5073685;28;20341;-82
2022/11/28 08:34:44;;;;;;;;;;;7.70;99.90;;;;;;5075008;28;19947;-81
2022/11/28 08:37:10;;;;;;;;;;;7.70;99.90;;;;;;5073758;28;19920;-81
2022/11/28 08:39:35;;;;;;;;;;;7.80;99.90;;;;;;5073981;28;19908;-82
2022/11/28 08:42:00;;;;;;;;;;;7.80;99.90;;;;;;5068257;28;20006;-83
2022/11/28 08:44:26;;;;;;;;;;;7.80;99.90;;;;;;5056652;28;19908;-84
2022/11/28 08:46:52;;;;;;;;;;;7.80;99.90;;;;;;5072618;28;19912;-82
2022/11/28 08:49:17;;;;;;;;;;;7.80;99.90;;;;;;5074319;28;19912;-83
2022/11/28 08:51:43;;;;;;;;;;;7.90;99.90;;;;;;5073936;28;19916;-84
2022/11/28 08:54:08;;;;;;;;;;;7.90;99.90;;;;;;5055231;28;20400;-83
2022/11/28 08:56:34;;;;;;;;;;;7.90;99.90;;;;;;5056346;28;19962;-81
2022/11/28 08:59:00;;;;;;;;;;;7.90;99.90;;;;;;5056625;28;19913;-81
2022/11/28 09:01:25;;;;;;;;;;;8.00;99.90;;;;;;5074246;28;19955;-83
2022/11/28 09:03:51;;;;;;;;;;;8.00;99.90;;;;;;5075262;28;20382;-85
2022/11/28 09:06:17;;;;;;;;;;;8.00;99.90;;;;;;5075278;28;19916;-82
2022/11/28 09:08:43;;;;;;;;;;;8.00;99.90;;;;;;5074728;28;19962;-83
2022/11/28 09:11:09;;;;;;;;;;;8.00;99.90;;;;;;5074125;28;19908;-83
2022/11/28 09:13:35;;;;;;;;;;;8.10;99.90;;;;;;5073597;28;19916;-83
2022/11/28 09:16:01;;;;;;;;;;;8.10;99.90;;;;;;5056035;28;19952;-83
2022/11/28 09:18:27;;;;;;;;;;;8.10;99.90;;;;;;5073851;28;19915;-82
2022/11/28 09:21:22;;;;;;;;;;;8.20;99.90;;;;;;5056270;28;19908;-83
2022/11/28 09:23:47;;;;;;;;;;;8.20;99.90;;;;;;5061229;28;19962;-83
2022/11/28 09:26:15;;;;;;;;;;;8.20;99.90;;;;;;5074531;28;19912;-83
2022/11/28 09:28:40;;;;;;;;;;;8.20;99.90;;;;;;5074083;28;20374;-83
2022/11/28 09:31:06;;;;;;;;;;;8.20;99.90;;;;;;5074236;28;19915;-83
2022/11/28 09:33:32;;;;;;;;;;;8.20;99.90;;;;;;5074619;28;19908;-83
2022/11/28 09:35:57;;;;;;;;;;;8.20;99.90;;;;;;5073890;28;19908;-84
2022/11/28 09:38:24;;;;;;;;;;;8.30;99.90;;;;;;5074300;28;19924;-84
2022/11/28 09:40:50;;;;;;;;;;;8.30;99.90;;;;;;5073465;28;19953;-83
2022/11/28 09:43:19;;;;;;;;;;;8.40;99.90;;;;;;5074781;28;19909;-84
2022/11/28 09:45:47;;;;;;;;;;;8.50;99.90;;;;;;5074447;28;19909;-84
2022/11/28 09:48:33;;;;;;;;;;;8.50;99.90;;;;;;5073003;28;19916;-83
2022/11/28 09:51:06;;;;;;;;;;;8.60;99.90;;;;;;5074063;28;19909;-83
2022/11/28 09:53:41;;;;;;;;;;;8.60;99.90;;;;;;5074015;28;19908;-84
2022/11/28 09:56:17;;;;;;;;;;;8.70;99.90;;;;;;5074205;28;20246;-83
2022/11/28 09:58:57;;;;;;;;;;;8.80;99.90;;;;;;5073539;28;19908;-82
2022/11/28 10:01:26;;;;;;;;;;;8.80;99.90;;;;;;5072238;28;19916;-83
2022/11/28 10:03:58;;;;;;;;;;;8.80;99.90;;;;;;5072403;28;19909;-81
2022/11/28 10:06:38;;;;;;;;;;;8.70;99.90;;;;;;5073447;28;19916;-83
2022/11/28 10:09:15;;;;;;;;;;;8.80;99.90;;;;;;5035692;28;19916;-83
2022/11/28 10:11:55;;;;;;;;;;;8.80;99.90;;;;;;5053373;28;20294;-82
2022/11/28 10:14:45;;;;;;;;;;;8.90;99.90;;;;;;5053982;28;20463;-83
2022/11/28 10:17:22;;;;;;;;;;;9.00;99.90;;;;;;5053900;28;19944;-82
2022/11/28 10:19:56;;;;;;;;;;;9.10;99.90;;;;;;5053053;28;19909;-83
2022/11/28 10:22:28;;;;;;;;;;;9.00;99.90;;;;;;5053325;28;19909;-83
2022/11/28 10:24:56;;;;;;;;;;;9.10;99.90;;;;;;5052981;28;20274;-81
2022/11/28 10:27:24;;;;;;;;;;;9.10;99.90;;;;;;5052822;28;19919;-80
2022/11/28 10:29:49;;;;;;;;;;;9.10;99.90;;;;;;5053222;28;19999;-79
2022/11/28 10:32:16;;;;;;;;;;;9.00;99.90;;;;;;5053111;28;19966;-80
2022/11/28 10:34:42;;;;;;;;;;;9.00;99.90;;;;;;5053334;28;19960;-81
2022/11/28 10:37:20;;;;;;;;;;;8.90;99.90;;;;;;5035117;28;20400;-80
2022/11/28 10:39:46;;;;;;;;;;;8.90;99.90;;;;;;5052990;28;19916;-81
2022/11/28 10:42:33;;;;;;;;;;;8.80;99.90;;;;;;5053010;28;19909;-81
2022/11/28 10:45:18;;;;;;;;;;;8.80;99.90;;;;;;5035199;28;19916;-80
2022/11/28 10:48:01;;;;;;;;;;;8.70;99.90;;;;;;5034970;28;19917;-80
2022/11/28 10:50:38;;;;;;;;;;;8.70;99.90;;;;;;5062835;28;20405;-82
2022/11/28 10:53:07;;;;;;;;;;;8.70;99.90;;;;;;5060031;28;20401;-82
2022/11/28 10:55:42;;;;;;;;;;;8.70;99.90;;;;;;5071030;28;19909;-83
2022/11/28 10:58:22;;;;;;;;;;;8.70;99.90;;;;;;5072237;28;19908;-83
2022/11/28 11:00:51;;;;;;;;;;;8.80;99.90;;;;;;5071943;28;19908;-83
2022/11/28 11:03:26;;;;;;;;;;;8.80;99.90;;;;;;5071446;28;19909;-83
2022/11/28 11:05:51;;;;;;;;;;;8.80;99.90;;;;;;5053400;28;19909;-83
2022/11/28 11:08:17;;;;;;;;;;;8.90;99.90;;;;;;5071203;28;20336;-82
2022/11/28 11:10:55;;;;;;;;;;;8.90;99.90;;;;;;5072361;28;19915;-83
2022/11/28 11:13:28;;;;;;;;;;;8.90;99.90;;;;;;5071076;28;19963;-82
2022/11/28 11:15:57;;;;;;;;;;;8.90;99.90;;;;;;5072488;28;19909;-81
2022/11/28 11:18:24;;;;;;;;;;;8.90;99.90;;;;;;5072598;28;19908;-82
2022/11/28 11:20:50;;;;;;;;;;;8.90;99.90;;;;;;5071242;28;19947;-84
2022/11/28 11:23:17;;;;;;;;;;;8.90;99.90;;;;;;5052967;28;19959;-81
2022/11/28 11:25:48;;;;;;;;;;;9.00;99.90;;;;;;5072211;28;19959;-83
2022/11/28 11:28:32;;;;;;;;;;;9.00;99.90;;;;;;5054288;28;19920;-81
2022/11/28 11:31:02;;;;;;;;;;;9.10;99.90;;;;;;5071843;28;19942;-83
2022/11/28 11:33:33;;;;;;;;;;;9.00;99.90;;;;;;5054157;28;19958;-82
2022/11/28 11:35:59;;;;;;;;;;;9.00;99.90;;;;;;5071986;28;20192;-81
2022/11/28 11:38:28;;;;;;;;;;;9.00;99.90;;;;;;5058056;28;20003;-82
2022/11/28 11:40:54;;;;;;;;;;;8.90;99.90;;;;;;5075821;28;20581;-83
2022/11/28 11:43:34;;;;;;;;;;;9.00;99.90;;;;;;5077075;28;19912;-82
2022/11/28 11:46:10;;;;;;;;;;;9.00;99.90;;;;;;5076065;28;20014;-83
2022/11/28 11:48:37;;;;;;;;;;;8.90;99.90;;;;;;5075962;28;19924;-85
2022/11/28 11:51:03;;;;;;;;;;;8.90;99.90;;;;;;5057551;28;19909;-85
2022/11/28 11:53:28;;;;;;;;;;;8.80;99.90;;;;;;5075391;28;19915;-86
2022/11/28 11:55:54;;;;;;;;;;;8.80;99.90;;;;;;5057576;28;19908;-85
2022/11/28 11:58:40;;;;;;;;;;;8.70;99.90;;;;;;5057322;28;19912;-85
2022/11/28 12:01:06;;;;;;;;;;;8.80;99.90;;;;;;5055562;28;19916;-83
2022/11/28 12:03:52;;;;;;;;;;;8.80;99.90;;;;;;5069572;28;19912;-84
2022/11/28 12:06:22;;;;;;;;;;;8.90;99.90;;;;;;5075817;28;20301;-84
2022/11/28 12:09:00;;;;;;;;;;;8.90;99.90;;;;;;5075391;28;19926;-85
2022/11/28 12:11:32;;;;;;;;;;;8.90;99.90;;;;;;5074250;28;19912;-85
2022/11/28 12:14:02;;;;;;;;;;;8.90;99.90;;;;;;5058481;28;19916;-84
2022/11/28 12:16:33;;;;;;;;;;;9.00;99.90;;;;;;5055278;28;19912;-85
2022/11/28 12:18:59;;;;;;;;;;;9.00;99.90;;;;;;5075080;28;19934;-85
2022/11/28 12:21:33;;;;;;;;;;;9.00;99.90;;;;;;5056908;28;19909;-85
2022/11/28 12:24:04;;;;;;;;;;;9.10;99.90;;;;;;5076638;28;19962;-85
2022/11/28 12:26:50;;;;;;;;;;;9.10;99.90;;;;;;5058298;28;20398;-85
2022/11/28 12:29:34;;;;;;;;;;;9.10;99.90;;;;;;5075082;28;19947;-85
2022/11/28 12:32:02;;;;;;;;;;;9.20;99.90;;;;;;5074597;28;20011;-85
2022/11/28 12:34:46;;;;;;;;;;;9.20;99.90;;;;;;5074848;28;19908;-85
2022/11/28 12:37:19;;;;;;;;;;;9.30;99.90;;;;;;5057886;28;19915;-85
2022/11/28 12:39:50;;;;;;;;;;;9.30;99.90;;;;;;5058933;28;19971;-85
2022/11/28 12:42:42;;;;;;;;;;;9.20;99.90;;;;;;5058136;28;20289;-85
2022/11/28 12:45:15;;;;;;;;;;;9.20;99.90;;;;;;5054526;28;19908;-84
2022/11/28 12:47:53;;;;;;;;;;;9.20;99.90;;;;;;5074789;28;19927;-85
2022/11/28 12:50:19;;;;;;;;;;;9.20;99.90;;;;;;5056972;28;19954;-84
2022/11/28 12:52:50;;;;;;;;;;;9.20;99.90;;;;;;5074532;28;19912;-85
2022/11/28 12:55:15;;;;;;;;;;;9.20;99.90;;;;;;5056704;28;19910;-85
2022/11/28 12:57:59;;;;;;;;;;;9.20;99.90;;;;;;5058537;28;19931;-84
2022/11/28 13:00:25;;;;;;;;;;;9.20;99.90;;;;;;5074874;28;19909;-86
2022/11/28 13:02:57;;;;;;;;;;;9.20;99.90;;;;;;5074066;28;20390;-86
2022/11/28 13:05:34;;;;;;;;;;;9.20;99.90;;;;;;5074215;28;20381;-87
2022/11/28 13:08:18;;;;;;;;;;;9.20;99.90;;;;;;5074457;28;19924;-86
2022/11/28 13:10:59;;;;;;;;;;;9.30;99.90;;;;;;5056462;28;19909;-87
2022/11/28 13:13:34;;;;;;;;;;;9.30;99.90;;;;;;5056505;28;19915;-86
2022/11/28 13:16:12;;;;;;;;;;;9.30;99.90;;;;;;5056346;28;19959;-87
2022/11/28 13:18:39;;;;;;;;;;;9.20;99.90;;;;;;5074033;28;20022;-86
2022/11/28 13:21:23;;;;;;;;;;;9.20;99.90;;;;;;5073796;28;20393;-87
2022/11/28 13:23:52;;;;;;;;;;;9.20;99.90;;;;;;5056062;28;20409;-86
2022/11/28 13:26:17;;;;;;;;;;;9.30;99.90;;;;;;5056032;28;19909;-87
2022/11/28 13:28:43;;;;;;;;;;;9.30;99.90;;;;;;5074008;28;19919;-86
2022/11/28 13:31:30;;;;;;;;;;;9.40;99.90;;;;;;5056291;28;20309;-86
2022/11/28 13:33:56;;;;;;;;;;;9.40;99.90;;;;;;5056118;28;19954;-86
2022/11/28 13:36:37;;;;;;;;;;;9.40;99.90;;;;;;5056079;28;19912;-85
2022/11/28 13:39:16;;;;;;;;;;;9.50;99.90;;;;;;5057731;28;20003;-84
2022/11/28 13:41:42;;;;;;;;;;;9.50;99.90;;;;;;5057121;28;19908;-84
2022/11/28 13:44:14;;;;;;;;;;;9.50;99.90;;;;;;5075616;28;19915;-84
2022/11/28 13:46:44;;;;;;;;;;;9.50;99.90;;;;;;5057181;28;19916;-84
2022/11/28 13:49:26;;;;;;;;;;;9.60;99.90;;;;;;5073737;28;19943;-84
2022/11/28 13:52:31;;;;;;;;;;;9.60;99.90;;;;;;5056262;28;19915;-84
2022/11/28 13:54:56;;;;;;;;;;;9.60;99.90;;;;;;4996173;28;19916;-84
2022/11/28 13:57:25;;;;;;;;;;;9.60;99.90;;;;;;4996111;28;20562;-84
2022/11/28 14:00:17;;;;;;;;;;;9.70;99.90;;;;;;5025642;28;19909;-83
2022/11/28 14:02:48;;;;;;;;;;;9.70;99.90;;;;;;5053495;28;19962;-85
2022/11/28 14:05:46;;;;;;;;;;;9.70;99.90;;;;;;5056021;28;20393;-84
2022/11/28 14:08:25;;;;;;;;;;;9.80;99.90;;;;;;5022379;28;19999;-84
2022/11/28 14:10:54;;;;;;;;;;;9.80;99.90;;;;;;5055804;28;20006;-84
2022/11/28 14:13:29;;;;;;;;;;;9.80;99.90;;;;;;5055677;28;19912;-84
2022/11/28 14:16:13;;;;;;;;;;;9.80;99.90;;;;;;5074085;28;20274;-84
2022/11/28 14:18:47;;;;;;;;;;;9.90;99.90;;;;;;5055818;28;19908;-84
2022/11/28 14:21:21;;;;;;;;;;;9.90;99.90;;;;;;5073418;28;19997;-85
2022/11/28 14:23:53;;;;;;;;;;;10.00;99.90;;;;;;5055431;28;20001;-84
2022/11/28 14:26:24;;;;;;;;;;;10.00;99.90;;;;;;5055966;28;19908;-82
2022/11/28 14:28:50;;;;;;;;;;;9.90;99.90;;;;;;5073400;28;19922;-83
2022/11/28 14:31:32;;;;;;;;;;;10.00;99.90;;;;;;5072491;28;20398;-83
2022/11/28 14:34:02;;;;;;;;;;;9.90;99.90;;;;;;5073696;28;19912;-82
2022/11/28 14:36:35;;;;;;;;;;;9.90;99.90;;;;;;5051172;28;19913;-88
2022/11/28 14:39:02;;;;;;;;;;;9.80;99.90;;;;;;5047690;28;20380;-83
2022/11/28 14:41:28;;;;;;;;;;;9.80;99.90;;;;;;5066645;28;19931;-84
2022/11/28 14:43:53;;;;;;;;;;;9.80;99.90;;;;;;5046255;28;19995;-83
2022/11/28 14:46:20;;;;;;;;;;;9.80;99.90;;;;;;5073400;28;19912;-84